Meteo Giornale » Osservazioni meteo Francia » Lione-Bron

ore: 18:00 - Osservazioni Meteo Lione-Bron
Lat. 45° 43' N Lon. 4° 57' E Alt. 200 metri s.l.m.

molto_nuvoloso Europe/Paris

23 °C

Molto Nuvoloso

Temp. 24 Ore

18 °C

28 °C

Nord

3.7 Km/h

Dew point 20 °C

Umidità 83 %

Visibilità  10 Km

Il sole sorge alle ore 06:19

Il sole tramonta alle ore 21:13

Data e Ora Cielo e Fenomeni T °C DP °C Um. % Pres. hPa Vis. km Vento km/h
Oggi h: 18:00 molto_nuvoloso Molto Nuvoloso 23 20 83 1012 10 N 3.7
Oggi h: 17:30 nuvoloso_temporali Temporale nelle Vicinanze 21 19 88 1012 10 N/NO 7.4
Oggi h: 17:00 nuvoloso_temporali Temporale con Pioggia 22 20 88 1013 2 O 7.4
Oggi h: 16:30 molto_nuvoloso Molto Nuvoloso 22 19 83 1012 10 N 5.5
Oggi h: 16:00 nuvoloso_temporali Temporale con Pioggia 21 19 88 1012 4 N 5.5
Oggi h: 15:30 nuvoloso_temporali Temporale con Pioggia 22 19 83 1012 7 NO 16.7
Oggi h: 15:00 coperto_temporali Temporale 26 16 54 1012 10 N 5.5
Oggi h: 14:30 molto_nuvoloso Molto Nuvoloso 27 17 54 1012 10 N 5.5
Oggi h: 13:30 sereno Sereno 27 17 54 1012 10 N 5.5
Oggi h: 13:00 sereno Sereno 26 17 57 1012 10 N 3.7
Oggi h: 12:30 sereno Sereno 26 17 57 1013 10 S 7.4
Oggi h: 12:00 sereno Sereno 25 17 61 1013 10 S 9.3
Oggi h: 11:30 sereno Sereno 25 16 57 1013 10 N 5.5
Oggi h: 11:00 molto_nuvoloso Molto Nuvoloso 23 16 64 1013 10 N 5.5
Oggi h: 10:30 sereno Sereno 23 15 60 1013 10 N 5.5
Oggi h: 10:00 sereno Sereno 23 15 60 1013 10 N 5.5
Oggi h: 09:30 sereno Sereno 23 15 60 1013 10 N 3.7
Oggi h: 09:00 sereno Sereno 22 15 64 1013 10 N 3.7
Oggi h: 08:30 sereno Sereno 21 15 68 1013 10 N 3.7
Oggi h: 08:00 sereno Sereno 20 15 72 1013 10 N 1.8
Oggi h: 07:30 sereno Sereno 19 16 82 1013 10 N 0
Oggi h: 06:30 sereno Sereno 18 16 88 1012 10 N 0
Oggi h: 06:00 sereno Sereno 18 16 88 1012 10 N 0
Oggi h: 05:30 sereno Sereno 18 15 82 1012 10 N 3.7
Oggi h: 05:00 sereno Sereno 19 16 82 1012 10 N 0
Oggi h: 04:30 sereno Sereno 19 15 77 1013 10 N 0
Oggi h: 04:00 sereno Sereno 19 15 77 1012 10 N 0
Oggi h: 03:30 sereno Sereno 19 16 82 1012 10 N 5.5
Oggi h: 03:00 sereno Sereno 19 16 82 1012 10 N 0
Oggi h: 02:30 sereno Sereno 20 15 72 1012 10 N 0
Oggi h: 02:00 sereno Sereno 20 16 77 1013 10 N 3.7
Oggi h: 01:30 sereno Sereno 20 16 77 1013 10 N 0
Oggi h: 01:00 sereno Sereno 21 15 68 1013 10 N 0
Oggi h: 00:30 sereno Sereno 21 16 73 1013 10 N 0
Ieri h: 23:30 sereno Sereno 23 15 60 1013 10 N 5.5
Ieri h: 23:00 sereno Sereno 23 15 60 1013 10 N 5.5
Ieri h: 22:30 sereno Sereno 23 14 56 1013 10 N 3.7
Ieri h: 22:00 sereno Sereno 24 14 53 1013 10 N 5.5
Ieri h: 21:30 sereno Sereno 25 14 50 1013 10 N 0
Ieri h: 21:00 sereno Sereno 26 14 47 1012 10 NE 7.4
Ieri h: 20:30 sereno Sereno 26 14 47 1013 10 NE 9.3
Ieri h: 20:00 sereno Sereno 27 14 44 1013 10 E/NE 11.1
Ieri h: 19:30 sereno Sereno 28 14 42 1013 10 E 7.4
Ieri h: 19:00 sereno Sereno 28 14 42 1013 10 E/NE 9.3